sensor_id;sensor_type;location;lat;lon;timestamp;temperature;humidity
71754;DHT22;59593;51.716;7.016;2024-01-15T00:02:16;2.00;99.90
71754;DHT22;59593;51.716;7.016;2024-01-15T00:04:42;2.00;99.90
71754;DHT22;59593;51.716;7.016;2024-01-15T00:07:08;2.00;99.90
71754;DHT22;59593;51.716;7.016;2024-01-15T00:09:34;2.00;99.90
71754;DHT22;59593;51.716;7.016;2024-01-15T00:12:01;2.00;99.90
71754;DHT22;59593;51.716;7.016;2024-01-15T00:14:27;2.10;99.90
71754;DHT22;59593;51.716;7.016;2024-01-15T00:16:53;2.00;99.90
71754;DHT22;59593;51.716;7.016;2024-01-15T00:19:20;2.10;99.90
71754;DHT22;59593;51.716;7.016;2024-01-15T00:21:46;2.10;99.90
71754;DHT22;59593;51.716;7.016;2024-01-15T00:24:12;2.10;99.90
71754;DHT22;59593;51.716;7.016;2024-01-15T00:26:37;2.10;99.90
71754;DHT22;59593;51.716;7.016;2024-01-15T00:29:03;2.10;99.90
71754;DHT22;59593;51.716;7.016;2024-01-15T00:31:29;2.10;99.90
71754;DHT22;59593;51.716;7.016;2024-01-15T00:33:55;2.10;99.90
71754;DHT22;59593;51.716;7.016;2024-01-15T00:36:21;2.20;99.90
71754;DHT22;59593;51.716;7.016;2024-01-15T00:38:47;2.10;99.90
71754;DHT22;59593;51.716;7.016;2024-01-15T00:41:13;2.10;99.90
71754;DHT22;59593;51.716;7.016;2024-01-15T00:43:39;2.10;99.90
71754;DHT22;59593;51.716;7.016;2024-01-15T00:46:05;2.20;99.90
71754;DHT22;59593;51.716;7.016;2024-01-15T00:48:30;2.10;99.90
71754;DHT22;59593;51.716;7.016;2024-01-15T00:50:56;2.20;99.90
71754;DHT22;59593;51.716;7.016;2024-01-15T00:53:22;2.20;99.90
71754;DHT22;59593;51.716;7.016;2024-01-15T00:55:48;2.20;99.90
71754;DHT22;59593;51.716;7.016;2024-01-15T00:58:14;2.20;99.90
71754;DHT22;59593;51.716;7.016;2024-01-15T01:00:39;2.20;99.90
71754;DHT22;59593;51.716;7.016;2024-01-15T01:03:06;2.20;99.90
71754;DHT22;59593;51.716;7.016;2024-01-15T01:05:32;2.10;99.90
71754;DHT22;59593;51.716;7.016;2024-01-15T01:07:58;2.20;99.90
71754;DHT22;59593;51.716;7.016;2024-01-15T01:10:24;2.20;99.90
71754;DHT22;59593;51.716;7.016;2024-01-15T01:12:49;2.10;99.90
71754;DHT22;59593;51.716;7.016;2024-01-15T01:15:15;2.20;99.90
71754;DHT22;59593;51.716;7.016;2024-01-15T01:17:40;2.10;99.90
71754;DHT22;59593;51.716;7.016;2024-01-15T01:20:08;2.20;99.90
71754;DHT22;59593;51.716;7.016;2024-01-15T01:22:34;2.20;99.90
71754;DHT22;59593;51.716;7.016;2024-01-15T01:25:00;2.20;99.90
71754;DHT22;59593;51.716;7.016;2024-01-15T01:27:26;2.20;99.90
71754;DHT22;59593;51.716;7.016;2024-01-15T01:29:51;2.20;99.90
71754;DHT22;59593;51.716;7.016;2024-01-15T01:32:17;2.20;99.90
71754;DHT22;59593;51.716;7.016;2024-01-15T01:34:43;2.10;99.90
71754;DHT22;59593;51.716;7.016;2024-01-15T01:37:09;2.10;99.90
71754;DHT22;59593;51.716;7.016;2024-01-15T01:39:35;2.20;99.90
71754;DHT22;59593;51.716;7.016;2024-01-15T01:42:01;2.10;99.90
71754;DHT22;59593;51.716;7.016;2024-01-15T01:44:26;2.10;99.90
71754;DHT22;59593;51.716;7.016;2024-01-15T01:46:52;2.10;99.90
71754;DHT22;59593;51.716;7.016;2024-01-15T01:49:18;2.00;99.90
71754;DHT22;59593;51.716;7.016;2024-01-15T01:51:44;2.00;99.90
71754;DHT22;59593;51.716;7.016;2024-01-15T01:54:11;2.00;99.90
71754;DHT22;59593;51.716;7.016;2024-01-15T01:56:40;2.00;99.90
71754;DHT22;59593;51.716;7.016;2024-01-15T01:59:06;2.00;99.90
71754;DHT22;59593;51.716;7.016;2024-01-15T02:01:33;2.00;99.90
71754;DHT22;59593;51.716;7.016;2024-01-15T02:03:59;2.10;99.90
71754;DHT22;59593;51.716;7.016;2024-01-15T02:06:25;2.10;99.90
71754;DHT22;59593;51.716;7.016;2024-01-15T02:08:50;2.10;99.90
71754;DHT22;59593;51.716;7.016;2024-01-15T02:11:18;2.00;99.90
71754;DHT22;59593;51.716;7.016;2024-01-15T02:13:43;2.00;99.90
71754;DHT22;59593;51.716;7.016;2024-01-15T02:16:09;2.00;99.90
71754;DHT22;59593;51.716;7.016;2024-01-15T02:18:41;2.00;99.90
71754;DHT22;59593;51.716;7.016;2024-01-15T02:21:07;2.00;99.90
71754;DHT22;59593;51.716;7.016;2024-01-15T02:23:33;2.00;99.90
71754;DHT22;59593;51.716;7.016;2024-01-15T02:25:59;2.00;99.90
71754;DHT22;59593;51.716;7.016;2024-01-15T02:28:24;2.00;99.90
71754;DHT22;59593;51.716;7.016;2024-01-15T02:30:50;2.10;99.90
71754;DHT22;59593;51.716;7.016;2024-01-15T02:33:15;2.10;99.90
71754;DHT22;59593;51.716;7.016;2024-01-15T02:35:41;2.00;99.90
71754;DHT22;59593;51.716;7.016;2024-01-15T02:38:07;2.10;99.90
71754;DHT22;59593;51.716;7.016;2024-01-15T02:40:33;2.10;99.90
71754;DHT22;59593;51.716;7.016;2024-01-15T02:42:59;2.00;99.90
71754;DHT22;59593;51.716;7.016;2024-01-15T02:45:25;2.00;99.90
71754;DHT22;59593;51.716;7.016;2024-01-15T02:47:50;2.00;99.90
71754;DHT22;59593;51.716;7.016;2024-01-15T02:50:16;2.10;99.90
71754;DHT22;59593;51.716;7.016;2024-01-15T02:52:42;2.00;99.90
71754;DHT22;59593;51.716;7.016;2024-01-15T02:55:08;2.00;99.90
71754;DHT22;59593;51.716;7.016;2024-01-15T02:57:33;2.00;99.90
71754;DHT22;59593;51.716;7.016;2024-01-15T02:59:59;2.00;99.90
71754;DHT22;59593;51.716;7.016;2024-01-15T03:02:25;2.00;99.90
71754;DHT22;59593;51.716;7.016;2024-01-15T03:04:50;2.00;99.90
71754;DHT22;59593;51.716;7.016;2024-01-15T03:07:16;2.00;99.90
71754;DHT22;59593;51.716;7.016;2024-01-15T03:09:42;2.00;99.90
71754;DHT22;59593;51.716;7.016;2024-01-15T03:12:07;2.00;99.90
71754;DHT22;59593;51.716;7.016;2024-01-15T03:14:33;2.00;99.90
71754;DHT22;59593;51.716;7.016;2024-01-15T03:16:59;2.00;99.90
71754;DHT22;59593;51.716;7.016;2024-01-15T03:19:26;2.10;99.90
71754;DHT22;59593;51.716;7.016;2024-01-15T03:21:52;2.10;99.90
71754;DHT22;59593;51.716;7.016;2024-01-15T03:24:17;2.10;99.90
71754;DHT22;59593;51.716;7.016;2024-01-15T03:26:43;2.10;99.90
71754;DHT22;59593;51.716;7.016;2024-01-15T03:29:08;2.10;99.90
71754;DHT22;59593;51.716;7.016;2024-01-15T03:31:34;2.10;99.90
71754;DHT22;59593;51.716;7.016;2024-01-15T03:34:00;2.10;99.90
71754;DHT22;59593;51.716;7.016;2024-01-15T03:36:25;2.10;99.90
71754;DHT22;59593;51.716;7.016;2024-01-15T03:38:51;2.10;99.90
71754;DHT22;59593;51.716;7.016;2024-01-15T03:41:16;2.10;99.90
71754;DHT22;59593;51.716;7.016;2024-01-15T03:43:42;2.10;99.90
71754;DHT22;59593;51.716;7.016;2024-01-15T03:46:07;2.10;99.90
71754;DHT22;59593;51.716;7.016;2024-01-15T03:48:33;2.00;99.90
71754;DHT22;59593;51.716;7.016;2024-01-15T03:50:59;2.00;99.90
71754;DHT22;59593;51.716;7.016;2024-01-15T03:53:24;2.00;99.90
71754;DHT22;59593;51.716;7.016;2024-01-15T03:55:50;2.00;99.90
71754;DHT22;59593;51.716;7.016;2024-01-15T03:58:15;2.00;99.90
71754;DHT22;59593;51.716;7.016;2024-01-15T04:00:42;2.00;99.90
71754;DHT22;59593;51.716;7.016;2024-01-15T04:03:08;2.00;99.90
71754;DHT22;59593;51.716;7.016;2024-01-15T04:05:33;1.90;99.90
71754;DHT22;59593;51.716;7.016;2024-01-15T04:07:59;1.90;99.90
71754;DHT22;59593;51.716;7.016;2024-01-15T04:10:25;1.90;99.90
71754;DHT22;59593;51.716;7.016;2024-01-15T04:12:50;1.90;99.90
71754;DHT22;59593;51.716;7.016;2024-01-15T04:15:16;1.90;99.90
71754;DHT22;59593;51.716;7.016;2024-01-15T04:17:41;1.90;99.90
71754;DHT22;59593;51.716;7.016;2024-01-15T04:20:07;1.90;99.90
71754;DHT22;59593;51.716;7.016;2024-01-15T04:22:35;1.90;99.90
71754;DHT22;59593;51.716;7.016;2024-01-15T04:25:01;1.90;99.90
71754;DHT22;59593;51.716;7.016;2024-01-15T04:27:27;1.80;99.90
71754;DHT22;59593;51.716;7.016;2024-01-15T04:29:53;1.80;99.90
71754;DHT22;59593;51.716;7.016;2024-01-15T04:32:19;1.80;99.90
71754;DHT22;59593;51.716;7.016;2024-01-15T04:34:45;1.80;99.90
71754;DHT22;59593;51.716;7.016;2024-01-15T04:37:10;1.80;99.90
71754;DHT22;59593;51.716;7.016;2024-01-15T04:39:36;1.80;99.90
71754;DHT22;59593;51.716;7.016;2024-01-15T04:42:02;1.90;99.90
71754;DHT22;59593;51.716;7.016;2024-01-15T04:44:28;1.80;99.90
71754;DHT22;59593;51.716;7.016;2024-01-15T04:46:54;1.80;99.90
71754;DHT22;59593;51.716;7.016;2024-01-15T04:49:20;1.80;99.90
71754;DHT22;59593;51.716;7.016;2024-01-15T04:51:45;1.80;99.90
71754;DHT22;59593;51.716;7.016;2024-01-15T04:54:11;1.80;99.90
71754;DHT22;59593;51.716;7.016;2024-01-15T04:56:37;1.80;99.90
71754;DHT22;59593;51.716;7.016;2024-01-15T04:59:02;1.80;99.90
71754;DHT22;59593;51.716;7.016;2024-01-15T05:01:34;1.70;99.90
71754;DHT22;59593;51.716;7.016;2024-01-15T05:04:00;1.70;99.90
71754;DHT22;59593;51.716;7.016;2024-01-15T05:06:26;1.80;99.90
71754;DHT22;59593;51.716;7.016;2024-01-15T05:08:51;1.90;99.90
71754;DHT22;59593;51.716;7.016;2024-01-15T05:11:17;1.90;99.90
71754;DHT22;59593;51.716;7.016;2024-01-15T05:13:43;1.80;99.90
71754;DHT22;59593;51.716;7.016;2024-01-15T05:16:09;1.80;99.90
71754;DHT22;59593;51.716;7.016;2024-01-15T05:18:34;1.80;99.90
71754;DHT22;59593;51.716;7.016;2024-01-15T05:21:00;1.90;99.90
71754;DHT22;59593;51.716;7.016;2024-01-15T05:23:25;1.90;99.90
71754;DHT22;59593;51.716;7.016;2024-01-15T05:25:51;1.90;99.90
71754;DHT22;59593;51.716;7.016;2024-01-15T05:28:16;1.90;99.90
71754;DHT22;59593;51.716;7.016;2024-01-15T05:30:42;2.00;99.90
71754;DHT22;59593;51.716;7.016;2024-01-15T05:33:09;2.00;99.90
71754;DHT22;59593;51.716;7.016;2024-01-15T05:35:34;2.10;99.90
71754;DHT22;59593;51.716;7.016;2024-01-15T05:38:00;2.10;99.90
71754;DHT22;59593;51.716;7.016;2024-01-15T05:40:26;2.00;99.90
71754;DHT22;59593;51.716;7.016;2024-01-15T05:42:52;2.10;99.90
71754;DHT22;59593;51.716;7.016;2024-01-15T05:45:18;2.10;99.90
71754;DHT22;59593;51.716;7.016;2024-01-15T05:47:44;2.10;99.90
71754;DHT22;59593;51.716;7.016;2024-01-15T05:50:10;2.10;99.90
71754;DHT22;59593;51.716;7.016;2024-01-15T05:52:35;2.10;99.90
71754;DHT22;59593;51.716;7.016;2024-01-15T05:55:01;2.10;99.90
71754;DHT22;59593;51.716;7.016;2024-01-15T05:57:27;2.20;99.90
71754;DHT22;59593;51.716;7.016;2024-01-15T05:59:53;2.20;99.90
71754;DHT22;59593;51.716;7.016;2024-01-15T06:02:19;2.10;99.90
71754;DHT22;59593;51.716;7.016;2024-01-15T06:04:44;2.10;99.90
71754;DHT22;59593;51.716;7.016;2024-01-15T06:07:10;2.00;99.90
71754;DHT22;59593;51.716;7.016;2024-01-15T06:09:35;2.00;99.90
71754;DHT22;59593;51.716;7.016;2024-01-15T06:12:02;2.00;99.90
71754;DHT22;59593;51.716;7.016;2024-01-15T06:14:28;2.00;99.90
71754;DHT22;59593;51.716;7.016;2024-01-15T06:16:53;2.00;99.90
71754;DHT22;59593;51.716;7.016;2024-01-15T06:19:19;2.00;99.90
71754;DHT22;59593;51.716;7.016;2024-01-15T06:21:45;2.00;99.90
71754;DHT22;59593;51.716;7.016;2024-01-15T06:24:10;2.10;99.90
71754;DHT22;59593;51.716;7.016;2024-01-15T06:26:36;2.00;99.90
71754;DHT22;59593;51.716;7.016;2024-01-15T06:29:02;2.00;99.90
71754;DHT22;59593;51.716;7.016;2024-01-15T06:31:28;2.10;99.90
71754;DHT22;59593;51.716;7.016;2024-01-15T06:33:55;2.00;99.90
71754;DHT22;59593;51.716;7.016;2024-01-15T06:36:20;2.00;99.90
71754;DHT22;59593;51.716;7.016;2024-01-15T06:38:46;2.10;99.90
71754;DHT22;59593;51.716;7.016;2024-01-15T06:41:12;2.10;99.90
71754;DHT22;59593;51.716;7.016;2024-01-15T06:43:38;2.10;99.90
71754;DHT22;59593;51.716;7.016;2024-01-15T06:46:03;2.10;99.90
71754;DHT22;59593;51.716;7.016;2024-01-15T06:48:29;2.10;99.90
71754;DHT22;59593;51.716;7.016;2024-01-15T06:50:55;2.10;99.90
71754;DHT22;59593;51.716;7.016;2024-01-15T06:53:20;2.20;99.90
71754;DHT22;59593;51.716;7.016;2024-01-15T06:55:46;2.10;99.90
71754;DHT22;59593;51.716;7.016;2024-01-15T06:58:11;2.10;99.90
71754;DHT22;59593;51.716;7.016;2024-01-15T07:00:37;2.10;99.90
71754;DHT22;59593;51.716;7.016;2024-01-15T07:03:03;2.10;99.90
71754;DHT22;59593;51.716;7.016;2024-01-15T07:05:29;2.20;99.90
71754;DHT22;59593;51.716;7.016;2024-01-15T07:07:56;2.20;99.90
71754;DHT22;59593;51.716;7.016;2024-01-15T07:10:21;2.10;99.90
71754;DHT22;59593;51.716;7.016;2024-01-15T07:12:47;2.20;99.90
71754;DHT22;59593;51.716;7.016;2024-01-15T07:15:13;2.20;99.90
71754;DHT22;59593;51.716;7.016;2024-01-15T07:17:39;2.10;99.90
71754;DHT22;59593;51.716;7.016;2024-01-15T07:20:06;2.10;99.90
71754;DHT22;59593;51.716;7.016;2024-01-15T07:22:33;2.20;99.90
71754;DHT22;59593;51.716;7.016;2024-01-15T07:24:59;2.10;99.90
71754;DHT22;59593;51.716;7.016;2024-01-15T07:27:25;2.20;99.90
71754;DHT22;59593;51.716;7.016;2024-01-15T07:29:50;2.20;99.90
71754;DHT22;59593;51.716;7.016;2024-01-15T07:32:16;2.20;99.90
71754;DHT22;59593;51.716;7.016;2024-01-15T07:34:42;2.20;99.90
71754;DHT22;59593;51.716;7.016;2024-01-15T07:37:07;2.20;99.90
71754;DHT22;59593;51.716;7.016;2024-01-15T07:39:33;2.20;99.90
71754;DHT22;59593;51.716;7.016;2024-01-15T07:42:00;2.20;99.90
71754;DHT22;59593;51.716;7.016;2024-01-15T07:44:26;2.20;99.90
71754;DHT22;59593;51.716;7.016;2024-01-15T07:46:51;2.20;99.90
71754;DHT22;59593;51.716;7.016;2024-01-15T07:49:17;2.30;99.90
71754;DHT22;59593;51.716;7.016;2024-01-15T07:51:43;2.20;99.90
71754;DHT22;59593;51.716;7.016;2024-01-15T07:54:11;2.30;99.90
71754;DHT22;59593;51.716;7.016;2024-01-15T07:59:21;2.30;99.90
71754;DHT22;59593;51.716;7.016;2024-01-15T08:01:46;2.20;99.90
71754;DHT22;59593;51.716;7.016;2024-01-15T08:04:12;2.20;99.90
71754;DHT22;59593;51.716;7.016;2024-01-15T08:06:38;2.30;99.90
71754;DHT22;59593;51.716;7.016;2024-01-15T08:09:04;2.20;99.90
71754;DHT22;59593;51.716;7.016;2024-01-15T08:11:30;2.10;99.90
71754;DHT22;59593;51.716;7.016;2024-01-15T08:13:56;2.20;99.90
71754;DHT22;59593;51.716;7.016;2024-01-15T08:16:21;2.20;99.90
71754;DHT22;59593;51.716;7.016;2024-01-15T08:18:47;2.20;99.90
71754;DHT22;59593;51.716;7.016;2024-01-15T08:21:13;2.30;99.90
71754;DHT22;59593;51.716;7.016;2024-01-15T08:23:39;2.20;99.90
71754;DHT22;59593;51.716;7.016;2024-01-15T08:26:05;2.20;99.90
71754;DHT22;59593;51.716;7.016;2024-01-15T08:28:30;2.20;99.90
71754;DHT22;59593;51.716;7.016;2024-01-15T08:30:56;2.10;99.90
71754;DHT22;59593;51.716;7.016;2024-01-15T08:33:21;2.20;99.90
71754;DHT22;59593;51.716;7.016;2024-01-15T08:35:47;2.20;99.90
71754;DHT22;59593;51.716;7.016;2024-01-15T08:38:13;2.20;99.90
71754;DHT22;59593;51.716;7.016;2024-01-15T08:40:39;2.10;99.90
71754;DHT22;59593;51.716;7.016;2024-01-15T08:43:04;2.10;99.90
71754;DHT22;59593;51.716;7.016;2024-01-15T08:45:32;2.10;99.90
71754;DHT22;59593;51.716;7.016;2024-01-15T08:47:58;2.10;99.90
71754;DHT22;59593;51.716;7.016;2024-01-15T08:50:23;2.10;99.90
71754;DHT22;59593;51.716;7.016;2024-01-15T08:52:49;2.10;99.90
71754;DHT22;59593;51.716;7.016;2024-01-15T08:55:14;2.10;99.90
71754;DHT22;59593;51.716;7.016;2024-01-15T08:57:40;2.10;99.90
71754;DHT22;59593;51.716;7.016;2024-01-15T09:00:06;2.10;99.90
71754;DHT22;59593;51.716;7.016;2024-01-15T09:02:34;2.10;99.90
71754;DHT22;59593;51.716;7.016;2024-01-15T09:05:00;2.10;99.90
71754;DHT22;59593;51.716;7.016;2024-01-15T09:07:26;2.10;99.90
71754;DHT22;59593;51.716;7.016;2024-01-15T09:09:52;2.10;99.90
71754;DHT22;59593;51.716;7.016;2024-01-15T09:12:18;2.10;99.90
71754;DHT22;59593;51.716;7.016;2024-01-15T09:14:46;2.10;99.90
71754;DHT22;59593;51.716;7.016;2024-01-15T09:17:12;2.10;99.90
71754;DHT22;59593;51.716;7.016;2024-01-15T09:19:37;2.10;99.90
71754;DHT22;59593;51.716;7.016;2024-01-15T09:22:05;2.10;99.90
71754;DHT22;59593;51.716;7.016;2024-01-15T09:24:31;2.10;99.90
71754;DHT22;59593;51.716;7.016;2024-01-15T09:26:56;2.10;99.90
71754;DHT22;59593;51.716;7.016;2024-01-15T09:29:22;2.20;99.90
71754;DHT22;59593;51.716;7.016;2024-01-15T09:31:51;2.20;99.90
71754;DHT22;59593;51.716;7.016;2024-01-15T09:34:17;2.10;99.90
71754;DHT22;59593;51.716;7.016;2024-01-15T09:36:43;2.20;99.90
71754;DHT22;59593;51.716;7.016;2024-01-15T09:39:09;2.20;99.90
71754;DHT22;59593;51.716;7.016;2024-01-15T09:41:36;2.20;99.90
71754;DHT22;59593;51.716;7.016;2024-01-15T09:44:05;2.20;99.90
71754;DHT22;59593;51.716;7.016;2024-01-15T09:46:33;2.10;99.90
71754;DHT22;59593;51.716;7.016;2024-01-15T09:48:59;2.10;99.90
71754;DHT22;59593;51.716;7.016;2024-01-15T09:51:25;2.10;99.90
71754;DHT22;59593;51.716;7.016;2024-01-15T09:53:51;2.10;99.90
71754;DHT22;59593;51.716;7.016;2024-01-15T09:56:17;2.10;99.90
71754;DHT22;59593;51.716;7.016;2024-01-15T09:58:42;2.10;99.90
71754;DHT22;59593;51.716;7.016;2024-01-15T10:01:09;2.10;99.90
71754;DHT22;59593;51.716;7.016;2024-01-15T10:03:36;2.10;99.90
71754;DHT22;59593;51.716;7.016;2024-01-15T10:06:03;2.10;99.90
71754;DHT22;59593;51.716;7.016;2024-01-15T10:08:29;2.10;99.90
71754;DHT22;59593;51.716;7.016;2024-01-15T10:10:55;2.20;99.90
71754;DHT22;59593;51.716;7.016;2024-01-15T10:13:21;2.10;99.90
71754;DHT22;59593;51.716;7.016;2024-01-15T10:15:47;2.10;99.90
71754;DHT22;59593;51.716;7.016;2024-01-15T10:18:13;2.10;99.90
71754;DHT22;59593;51.716;7.016;2024-01-15T10:20:39;2.10;99.90
71754;DHT22;59593;51.716;7.016;2024-01-15T10:23:05;2.10;99.90
71754;DHT22;59593;51.716;7.016;2024-01-15T10:25:31;2.20;99.90
71754;DHT22;59593;51.716;7.016;2024-01-15T10:28:00;2.20;99.90
71754;DHT22;59593;51.716;7.016;2024-01-15T10:30:25;2.30;99.90
71754;DHT22;59593;51.716;7.016;2024-01-15T10:33:01;2.30;99.90
71754;DHT22;59593;51.716;7.016;2024-01-15T10:37:54;2.40;99.90
71754;DHT22;59593;51.716;7.016;2024-01-15T10:40:20;2.50;99.90
71754;DHT22;59593;51.716;7.016;2024-01-15T10:42:46;2.70;99.90
71754;DHT22;59593;51.716;7.016;2024-01-15T10:45:13;3.00;99.90
71754;DHT22;59593;51.716;7.016;2024-01-15T10:47:39;2.90;99.90
71754;DHT22;59593;51.716;7.016;2024-01-15T10:50:05;2.80;99.90
71754;DHT22;59593;51.716;7.016;2024-01-15T10:52:34;2.80;99.90
71754;DHT22;59593;51.716;7.016;2024-01-15T10:55:01;2.60;99.90
71754;DHT22;59593;51.716;7.016;2024-01-15T10:57:28;2.60;99.90
71754;DHT22;59593;51.716;7.016;2024-01-15T10:59:54;2.70;99.90
71754;DHT22;59593;51.716;7.016;2024-01-15T11:02:20;2.70;99.90
71754;DHT22;59593;51.716;7.016;2024-01-15T11:04:46;2.70;99.90
71754;DHT22;59593;51.716;7.016;2024-01-15T11:07:13;2.70;99.90
71754;DHT22;59593;51.716;7.016;2024-01-15T11:09:39;2.60;99.90
71754;DHT22;59593;51.716;7.016;2024-01-15T11:12:12;2.70;99.90
71754;DHT22;59593;51.716;7.016;2024-01-15T11:14:40;2.90;99.90
71754;DHT22;59593;51.716;7.016;2024-01-15T11:17:06;2.90;99.90
71754;DHT22;59593;51.716;7.016;2024-01-15T11:19:48;2.90;99.90
71754;DHT22;59593;51.716;7.016;2024-01-15T11:24:57;3.20;99.90
71754;DHT22;59593;51.716;7.016;2024-01-15T11:27:43;3.10;99.90
71754;DHT22;59593;51.716;7.016;2024-01-15T11:30:13;3.10;99.90
71754;DHT22;59593;51.716;7.016;2024-01-15T11:32:39;3.10;99.90
71754;DHT22;59593;51.716;7.016;2024-01-15T11:35:09;3.20;99.90
71754;DHT22;59593;51.716;7.016;2024-01-15T11:42:58;3.00;99.90
71754;DHT22;59593;51.716;7.016;2024-01-15T11:45:24;3.00;99.90
71754;DHT22;59593;51.716;7.016;2024-01-15T11:48:07;3.00;99.90
71754;DHT22;59593;51.716;7.016;2024-01-15T11:50:35;3.00;99.90
71754;DHT22;59593;51.716;7.016;2024-01-15T11:55:41;3.00;99.90
71754;DHT22;59593;51.716;7.016;2024-01-15T11:58:10;2.90;99.90
71754;DHT22;59593;51.716;7.016;2024-01-15T12:00:43;2.90;99.90
71754;DHT22;59593;51.716;7.016;2024-01-15T12:03:09;3.00;99.90
71754;DHT22;59593;51.716;7.016;2024-01-15T12:05:39;3.00;99.90
71754;DHT22;59593;51.716;7.016;2024-01-15T12:08:07;3.00;99.90
71754;DHT22;59593;51.716;7.016;2024-01-15T12:10:39;2.90;99.90
71754;DHT22;59593;51.716;7.016;2024-01-15T12:13:09;2.90;99.90
71754;DHT22;59593;51.716;7.016;2024-01-15T12:15:35;2.90;99.90
71754;DHT22;59593;51.716;7.016;2024-01-15T12:18:02;3.00;99.90
71754;DHT22;59593;51.716;7.016;2024-01-15T12:20:29;3.00;99.90
71754;DHT22;59593;51.716;7.016;2024-01-15T12:22:55;2.90;99.90
71754;DHT22;59593;51.716;7.016;2024-01-15T12:25:25;2.90;99.90
71754;DHT22;59593;51.716;7.016;2024-01-15T12:27:52;3.00;99.90
71754;DHT22;59593;51.716;7.016;2024-01-15T12:30:18;3.30;99.90
71754;DHT22;59593;51.716;7.016;2024-01-15T12:32:44;4.20;99.90
71754;DHT22;59593;51.716;7.016;2024-01-15T12:35:10;3.60;99.90
71754;DHT22;59593;51.716;7.016;2024-01-15T12:37:37;3.30;99.90
71754;DHT22;59593;51.716;7.016;2024-01-15T12:40:04;3.10;99.90
71754;DHT22;59593;51.716;7.016;2024-01-15T12:42:35;3.30;99.90
71754;DHT22;59593;51.716;7.016;2024-01-15T12:45:01;3.30;99.90
71754;DHT22;59593;51.716;7.016;2024-01-15T12:47:26;3.30;99.90
71754;DHT22;59593;51.716;7.016;2024-01-15T12:49:52;3.20;99.90
71754;DHT22;59593;51.716;7.016;2024-01-15T12:52:21;3.10;99.90
71754;DHT22;59593;51.716;7.016;2024-01-15T12:54:48;3.00;99.90
71754;DHT22;59593;51.716;7.016;2024-01-15T12:57:14;2.90;99.90
71754;DHT22;59593;51.716;7.016;2024-01-15T12:59:40;2.90;99.90
71754;DHT22;59593;51.716;7.016;2024-01-15T13:02:05;2.90;99.90
71754;DHT22;59593;51.716;7.016;2024-01-15T13:04:32;2.90;99.90
71754;DHT22;59593;51.716;7.016;2024-01-15T13:06:58;3.00;99.90
71754;DHT22;59593;51.716;7.016;2024-01-15T13:09:23;3.00;99.90
71754;DHT22;59593;51.716;7.016;2024-01-15T13:11:49;3.00;99.90
71754;DHT22;59593;51.716;7.016;2024-01-15T13:14:14;3.00;99.90
71754;DHT22;59593;51.716;7.016;2024-01-15T13:16:40;2.90;99.90
71754;DHT22;59593;51.716;7.016;2024-01-15T13:19:08;3.00;99.90
71754;DHT22;59593;51.716;7.016;2024-01-15T13:21:34;3.00;99.90
71754;DHT22;59593;51.716;7.016;2024-01-15T13:24:00;2.90;99.90
71754;DHT22;59593;51.716;7.016;2024-01-15T13:26:25;2.90;99.90
71754;DHT22;59593;51.716;7.016;2024-01-15T13:28:51;2.90;99.90
71754;DHT22;59593;51.716;7.016;2024-01-15T13:31:16;2.90;99.90
71754;DHT22;59593;51.716;7.016;2024-01-15T13:33:42;2.90;99.90
71754;DHT22;59593;51.716;7.016;2024-01-15T13:36:08;2.90;99.90
71754;DHT22;59593;51.716;7.016;2024-01-15T13:38:36;3.00;99.90
71754;DHT22;59593;51.716;7.016;2024-01-15T13:41:04;3.00;99.90
71754;DHT22;59593;51.716;7.016;2024-01-15T13:43:30;3.10;99.90
71754;DHT22;59593;51.716;7.016;2024-01-15T13:45:56;3.00;99.90
71754;DHT22;59593;51.716;7.016;2024-01-15T13:48:22;2.90;99.90
71754;DHT22;59593;51.716;7.016;2024-01-15T13:50:47;2.70;99.90
71754;DHT22;59593;51.716;7.016;2024-01-15T13:53:13;2.60;99.90
71754;DHT22;59593;51.716;7.016;2024-01-15T13:55:38;2.60;99.90
71754;DHT22;59593;51.716;7.016;2024-01-15T13:58:04;2.60;99.90
71754;DHT22;59593;51.716;7.016;2024-01-15T14:00:32;2.70;99.90
71754;DHT22;59593;51.716;7.016;2024-01-15T14:02:57;2.70;99.90
71754;DHT22;59593;51.716;7.016;2024-01-15T14:05:23;2.70;99.90
71754;DHT22;59593;51.716;7.016;2024-01-15T14:07:49;2.90;99.90
71754;DHT22;59593;51.716;7.016;2024-01-15T14:10:15;3.90;99.90
71754;DHT22;59593;51.716;7.016;2024-01-15T14:12:40;4.90;99.90
71754;DHT22;59593;51.716;7.016;2024-01-15T14:15:06;5.20;99.90
71754;DHT22;59593;51.716;7.016;2024-01-15T14:17:32;5.20;99.90
71754;DHT22;59593;51.716;7.016;2024-01-15T14:19:58;5.30;99.90
71754;DHT22;59593;51.716;7.016;2024-01-15T14:22:23;5.20;99.90
71754;DHT22;59593;51.716;7.016;2024-01-15T14:24:49;4.50;99.90
71754;DHT22;59593;51.716;7.016;2024-01-15T14:27:16;3.90;99.90
71754;DHT22;59593;51.716;7.016;2024-01-15T14:29:42;3.60;99.90
71754;DHT22;59593;51.716;7.016;2024-01-15T14:32:07;3.40;99.90
71754;DHT22;59593;51.716;7.016;2024-01-15T14:34:33;3.10;99.90
71754;DHT22;59593;51.716;7.016;2024-01-15T14:36:58;2.90;99.90
71754;DHT22;59593;51.716;7.016;2024-01-15T14:39:24;2.80;99.90
71754;DHT22;59593;51.716;7.016;2024-01-15T14:41:50;2.70;99.90
71754;DHT22;59593;51.716;7.016;2024-01-15T14:44:17;2.60;99.90
71754;DHT22;59593;51.716;7.016;2024-01-15T14:46:42;2.60;99.90
71754;DHT22;59593;51.716;7.016;2024-01-15T14:49:08;2.70;99.90
71754;DHT22;59593;51.716;7.016;2024-01-15T14:51:33;2.50;99.90
71754;DHT22;59593;51.716;7.016;2024-01-15T14:53:59;2.50;99.90
71754;DHT22;59593;51.716;7.016;2024-01-15T14:56:25;2.50;99.90
71754;DHT22;59593;51.716;7.016;2024-01-15T14:58:50;2.50;99.90
71754;DHT22;59593;51.716;7.016;2024-01-15T15:01:16;2.50;99.90
71754;DHT22;59593;51.716;7.016;2024-01-15T15:03:42;2.60;99.90
71754;DHT22;59593;51.716;7.016;2024-01-15T15:06:09;2.50;99.90
71754;DHT22;59593;51.716;7.016;2024-01-15T15:08:35;2.50;99.90
71754;DHT22;59593;51.716;7.016;2024-01-15T15:11:02;2.50;99.90
71754;DHT22;59593;51.716;7.016;2024-01-15T15:13:28;2.50;99.90
71754;DHT22;59593;51.716;7.016;2024-01-15T15:15:53;2.40;99.90
71754;DHT22;59593;51.716;7.016;2024-01-15T15:18:20;2.30;99.90
71754;DHT22;59593;51.716;7.016;2024-01-15T15:20:47;2.30;99.90
71754;DHT22;59593;51.716;7.016;2024-01-15T15:23:13;2.30;99.90
71754;DHT22;59593;51.716;7.016;2024-01-15T15:25:38;2.30;99.90
71754;DHT22;59593;51.716;7.016;2024-01-15T15:28:04;2.30;99.90
71754;DHT22;59593;51.716;7.016;2024-01-15T15:30:34;2.30;99.90
71754;DHT22;59593;51.716;7.016;2024-01-15T15:32:59;2.30;99.90
71754;DHT22;59593;51.716;7.016;2024-01-15T15:35:25;2.30;99.90
71754;DHT22;59593;51.716;7.016;2024-01-15T15:37:50;2.30;99.90
71754;DHT22;59593;51.716;7.016;2024-01-15T15:40:16;2.30;99.90
71754;DHT22;59593;51.716;7.016;2024-01-15T15:42:42;2.30;99.90
71754;DHT22;59593;51.716;7.016;2024-01-15T15:45:08;2.20;99.90
71754;DHT22;59593;51.716;7.016;2024-01-15T15:47:35;2.20;99.90
71754;DHT22;59593;51.716;7.016;2024-01-15T15:50:01;2.20;99.90
71754;DHT22;59593;51.716;7.016;2024-01-15T15:52:27;2.10;99.90
71754;DHT22;59593;51.716;7.016;2024-01-15T15:54:52;2.10;99.90